sensor_id;sensor_type;location;lat;lon;timestamp;temperature;humidity
3705;DHT22;1868;48.918;9.438;2023-04-16T00:00:32;8.80;97.40
3705;DHT22;1868;48.918;9.438;2023-04-16T00:03:03;8.90;97.40
3705;DHT22;1868;48.918;9.438;2023-04-16T00:05:32;8.80;97.40
3705;DHT22;1868;48.918;9.438;2023-04-16T00:08:03;8.80;97.40
3705;DHT22;1868;48.918;9.438;2023-04-16T00:10:37;8.80;97.40
3705;DHT22;1868;48.918;9.438;2023-04-16T00:13:06;8.80;97.40
3705;DHT22;1868;48.918;9.438;2023-04-16T00:15:35;8.80;97.40
3705;DHT22;1868;48.918;9.438;2023-04-16T00:18:04;8.80;97.40
3705;DHT22;1868;48.918;9.438;2023-04-16T00:20:35;8.80;97.40
3705;DHT22;1868;48.918;9.438;2023-04-16T00:23:04;8.80;97.40
3705;DHT22;1868;48.918;9.438;2023-04-16T00:25:32;8.80;97.40
3705;DHT22;1868;48.918;9.438;2023-04-16T00:28:03;8.80;97.40
3705;DHT22;1868;48.918;9.438;2023-04-16T00:30:32;8.80;97.40
3705;DHT22;1868;48.918;9.438;2023-04-16T00:33:01;8.80;97.40
3705;DHT22;1868;48.918;9.438;2023-04-16T00:35:30;8.80;97.40
3705;DHT22;1868;48.918;9.438;2023-04-16T00:37:59;8.80;97.40
3705;DHT22;1868;48.918;9.438;2023-04-16T00:40:28;8.80;97.40
3705;DHT22;1868;48.918;9.438;2023-04-16T00:42:58;8.80;97.40
3705;DHT22;1868;48.918;9.438;2023-04-16T00:45:28;8.80;97.40
3705;DHT22;1868;48.918;9.438;2023-04-16T00:47:58;8.80;97.40
3705;DHT22;1868;48.918;9.438;2023-04-16T00:50:28;8.80;97.40
3705;DHT22;1868;48.918;9.438;2023-04-16T00:52:57;8.80;97.40
3705;DHT22;1868;48.918;9.438;2023-04-16T00:55:28;8.80;97.40
3705;DHT22;1868;48.918;9.438;2023-04-16T00:57:58;8.80;97.40
3705;DHT22;1868;48.918;9.438;2023-04-16T01:00:27;8.80;97.40
3705;DHT22;1868;48.918;9.438;2023-04-16T01:02:55;8.80;97.40
3705;DHT22;1868;48.918;9.438;2023-04-16T01:05:26;8.80;97.40
3705;DHT22;1868;48.918;9.438;2023-04-16T01:08:00;8.80;97.40
3705;DHT22;1868;48.918;9.438;2023-04-16T01:10:30;8.80;97.40
3705;DHT22;1868;48.918;9.438;2023-04-16T01:13:01;8.80;97.40
3705;DHT22;1868;48.918;9.438;2023-04-16T01:15:30;8.80;97.40
3705;DHT22;1868;48.918;9.438;2023-04-16T01:17:59;8.80;97.40
3705;DHT22;1868;48.918;9.438;2023-04-16T01:20:35;8.70;97.40
3705;DHT22;1868;48.918;9.438;2023-04-16T01:23:06;8.70;97.40
3705;DHT22;1868;48.918;9.438;2023-04-16T01:25:35;8.70;97.40
3705;DHT22;1868;48.918;9.438;2023-04-16T01:28:05;8.70;97.40
3705;DHT22;1868;48.918;9.438;2023-04-16T01:30:34;8.70;97.40
3705;DHT22;1868;48.918;9.438;2023-04-16T01:33:23;8.70;97.40
3705;DHT22;1868;48.918;9.438;2023-04-16T01:35:54;8.70;97.40
3705;DHT22;1868;48.918;9.438;2023-04-16T01:38:26;8.70;97.40
3705;DHT22;1868;48.918;9.438;2023-04-16T01:40:55;8.70;97.40
3705;DHT22;1868;48.918;9.438;2023-04-16T01:43:29;8.70;97.40
3705;DHT22;1868;48.918;9.438;2023-04-16T01:46:11;8.70;97.40
3705;DHT22;1868;48.918;9.438;2023-04-16T01:48:41;8.70;97.40
3705;DHT22;1868;48.918;9.438;2023-04-16T01:51:13;8.70;97.40
3705;DHT22;1868;48.918;9.438;2023-04-16T01:53:44;8.70;97.40
3705;DHT22;1868;48.918;9.438;2023-04-16T01:56:15;8.70;97.40
3705;DHT22;1868;48.918;9.438;2023-04-16T01:58:45;8.70;97.40
3705;DHT22;1868;48.918;9.438;2023-04-16T02:01:15;8.70;97.40
3705;DHT22;1868;48.918;9.438;2023-04-16T02:03:46;8.70;97.40
3705;DHT22;1868;48.918;9.438;2023-04-16T02:06:17;8.70;97.40
3705;DHT22;1868;48.918;9.438;2023-04-16T02:08:47;8.70;97.40
3705;DHT22;1868;48.918;9.438;2023-04-16T02:11:17;8.70;97.40
3705;DHT22;1868;48.918;9.438;2023-04-16T02:13:47;8.70;97.40
3705;DHT22;1868;48.918;9.438;2023-04-16T02:16:21;8.70;97.40
3705;DHT22;1868;48.918;9.438;2023-04-16T02:18:55;8.70;97.40
3705;DHT22;1868;48.918;9.438;2023-04-16T02:21:29;8.70;97.40
3705;DHT22;1868;48.918;9.438;2023-04-16T02:24:00;8.70;97.40
3705;DHT22;1868;48.918;9.438;2023-04-16T02:26:31;8.70;97.40
3705;DHT22;1868;48.918;9.438;2023-04-16T02:29:07;8.70;97.40
3705;DHT22;1868;48.918;9.438;2023-04-16T02:31:44;8.70;97.40
3705;DHT22;1868;48.918;9.438;2023-04-16T02:34:21;8.60;97.40
3705;DHT22;1868;48.918;9.438;2023-04-16T02:36:53;8.60;97.40
3705;DHT22;1868;48.918;9.438;2023-04-16T02:39:22;8.70;97.40
3705;DHT22;1868;48.918;9.438;2023-04-16T02:41:52;8.60;97.40
3705;DHT22;1868;48.918;9.438;2023-04-16T02:44:21;8.70;97.40
3705;DHT22;1868;48.918;9.438;2023-04-16T02:46:50;8.70;97.40
3705;DHT22;1868;48.918;9.438;2023-04-16T02:49:19;8.70;97.40
3705;DHT22;1868;48.918;9.438;2023-04-16T02:51:48;8.70;97.40
3705;DHT22;1868;48.918;9.438;2023-04-16T02:54:19;8.70;97.40
3705;DHT22;1868;48.918;9.438;2023-04-16T02:56:48;8.70;97.40
3705;DHT22;1868;48.918;9.438;2023-04-16T02:59:18;8.70;97.40
3705;DHT22;1868;48.918;9.438;2023-04-16T03:01:47;8.70;97.40
3705;DHT22;1868;48.918;9.438;2023-04-16T03:04:21;8.70;97.40
3705;DHT22;1868;48.918;9.438;2023-04-16T03:06:50;8.70;97.40
3705;DHT22;1868;48.918;9.438;2023-04-16T03:09:21;8.70;97.40
3705;DHT22;1868;48.918;9.438;2023-04-16T03:11:50;8.70;97.40
3705;DHT22;1868;48.918;9.438;2023-04-16T03:14:19;8.70;97.40
3705;DHT22;1868;48.918;9.438;2023-04-16T03:16:49;8.70;97.40
3705;DHT22;1868;48.918;9.438;2023-04-16T03:19:18;8.70;97.40
3705;DHT22;1868;48.918;9.438;2023-04-16T03:21:47;8.70;97.40
3705;DHT22;1868;48.918;9.438;2023-04-16T03:24:17;8.70;97.40
3705;DHT22;1868;48.918;9.438;2023-04-16T03:26:49;8.70;97.40
3705;DHT22;1868;48.918;9.438;2023-04-16T03:29:21;8.70;97.40
3705;DHT22;1868;48.918;9.438;2023-04-16T03:31:51;8.70;97.40
3705;DHT22;1868;48.918;9.438;2023-04-16T03:34:21;8.70;97.40
3705;DHT22;1868;48.918;9.438;2023-04-16T03:36:50;8.70;97.40
3705;DHT22;1868;48.918;9.438;2023-04-16T03:39:23;8.70;97.40
3705;DHT22;1868;48.918;9.438;2023-04-16T03:41:57;8.70;97.40
3705;DHT22;1868;48.918;9.438;2023-04-16T03:44:27;8.70;97.40
3705;DHT22;1868;48.918;9.438;2023-04-16T03:46:56;8.70;97.40
3705;DHT22;1868;48.918;9.438;2023-04-16T03:49:26;8.70;97.40
3705;DHT22;1868;48.918;9.438;2023-04-16T03:51:55;8.70;97.40
3705;DHT22;1868;48.918;9.438;2023-04-16T03:54:25;8.70;97.40
3705;DHT22;1868;48.918;9.438;2023-04-16T03:57:09;8.70;97.40
3705;DHT22;1868;48.918;9.438;2023-04-16T03:59:41;8.70;97.40
3705;DHT22;1868;48.918;9.438;2023-04-16T04:02:12;8.70;97.40
3705;DHT22;1868;48.918;9.438;2023-04-16T04:04:43;8.70;97.40
3705;DHT22;1868;48.918;9.438;2023-04-16T04:07:12;8.70;97.40
3705;DHT22;1868;48.918;9.438;2023-04-16T04:09:42;8.80;97.40
3705;DHT22;1868;48.918;9.438;2023-04-16T04:12:17;8.80;97.40
3705;DHT22;1868;48.918;9.438;2023-04-16T04:14:46;8.80;97.40
3705;DHT22;1868;48.918;9.438;2023-04-16T04:17:15;8.80;97.40
3705;DHT22;1868;48.918;9.438;2023-04-16T04:19:44;8.80;97.40
3705;DHT22;1868;48.918;9.438;2023-04-16T04:22:27;8.80;97.40
3705;DHT22;1868;48.918;9.438;2023-04-16T04:24:58;8.80;97.40
3705;DHT22;1868;48.918;9.438;2023-04-16T04:27:30;8.70;97.40
3705;DHT22;1868;48.918;9.438;2023-04-16T04:30:00;8.80;97.40
3705;DHT22;1868;48.918;9.438;2023-04-16T04:32:30;8.80;97.40
3705;DHT22;1868;48.918;9.438;2023-04-16T04:35:00;8.70;97.40
3705;DHT22;1868;48.918;9.438;2023-04-16T04:37:31;8.70;97.40
3705;DHT22;1868;48.918;9.438;2023-04-16T04:40:09;8.70;97.40
3705;DHT22;1868;48.918;9.438;2023-04-16T04:42:39;8.70;97.40
3705;DHT22;1868;48.918;9.438;2023-04-16T04:45:11;8.70;97.40
3705;DHT22;1868;48.918;9.438;2023-04-16T04:47:41;8.70;97.40
3705;DHT22;1868;48.918;9.438;2023-04-16T04:50:11;8.70;97.40
3705;DHT22;1868;48.918;9.438;2023-04-16T04:52:42;8.80;97.40
3705;DHT22;1868;48.918;9.438;2023-04-16T04:55:11;8.80;97.40
3705;DHT22;1868;48.918;9.438;2023-04-16T04:57:43;8.80;97.40
3705;DHT22;1868;48.918;9.438;2023-04-16T05:00:13;8.80;97.40
3705;DHT22;1868;48.918;9.438;2023-04-16T05:02:51;8.80;97.40
3705;DHT22;1868;48.918;9.438;2023-04-16T05:05:22;8.80;97.40
3705;DHT22;1868;48.918;9.438;2023-04-16T05:07:52;8.80;97.40
3705;DHT22;1868;48.918;9.438;2023-04-16T05:10:20;8.80;97.40
3705;DHT22;1868;48.918;9.438;2023-04-16T05:12:52;8.80;97.40
3705;DHT22;1868;48.918;9.438;2023-04-16T05:15:23;8.80;97.40
3705;DHT22;1868;48.918;9.438;2023-04-16T05:17:52;8.80;97.40
3705;DHT22;1868;48.918;9.438;2023-04-16T05:20:22;8.80;97.40
3705;DHT22;1868;48.918;9.438;2023-04-16T05:22:51;8.80;97.40
3705;DHT22;1868;48.918;9.438;2023-04-16T05:25:21;8.80;97.40
3705;DHT22;1868;48.918;9.438;2023-04-16T05:27:52;8.80;97.40
3705;DHT22;1868;48.918;9.438;2023-04-16T05:30:22;8.80;97.40
3705;DHT22;1868;48.918;9.438;2023-04-16T05:32:52;8.80;97.40
3705;DHT22;1868;48.918;9.438;2023-04-16T05:35:20;8.90;97.40
3705;DHT22;1868;48.918;9.438;2023-04-16T05:37:52;8.90;97.40
3705;DHT22;1868;48.918;9.438;2023-04-16T05:40:21;8.90;97.40
3705;DHT22;1868;48.918;9.438;2023-04-16T05:42:52;8.90;97.40
3705;DHT22;1868;48.918;9.438;2023-04-16T05:45:20;8.90;97.40
3705;DHT22;1868;48.918;9.438;2023-04-16T05:47:53;8.90;97.40
3705;DHT22;1868;48.918;9.438;2023-04-16T05:50:24;8.90;97.40
3705;DHT22;1868;48.918;9.438;2023-04-16T05:52:54;8.90;97.40
3705;DHT22;1868;48.918;9.438;2023-04-16T05:55:24;8.90;97.40
3705;DHT22;1868;48.918;9.438;2023-04-16T05:57:55;8.90;97.40
3705;DHT22;1868;48.918;9.438;2023-04-16T06:00:24;8.90;97.40
3705;DHT22;1868;48.918;9.438;2023-04-16T06:02:54;8.90;97.40
3705;DHT22;1868;48.918;9.438;2023-04-16T06:05:24;9.00;97.40
3705;DHT22;1868;48.918;9.438;2023-04-16T06:07:55;9.00;97.40
3705;DHT22;1868;48.918;9.438;2023-04-16T06:10:25;9.10;97.40
3705;DHT22;1868;48.918;9.438;2023-04-16T06:12:56;9.10;97.40
3705;DHT22;1868;48.918;9.438;2023-04-16T06:15:25;9.10;97.40
3705;DHT22;1868;48.918;9.438;2023-04-16T06:17:55;9.10;97.40
3705;DHT22;1868;48.918;9.438;2023-04-16T06:20:27;9.10;97.40
3705;DHT22;1868;48.918;9.438;2023-04-16T06:22:57;9.10;97.40
3705;DHT22;1868;48.918;9.438;2023-04-16T06:25:26;9.10;97.40
3705;DHT22;1868;48.918;9.438;2023-04-16T06:28:03;9.10;97.40
3705;DHT22;1868;48.918;9.438;2023-04-16T06:30:33;9.10;97.40
3705;DHT22;1868;48.918;9.438;2023-04-16T06:33:06;9.10;97.40
3705;DHT22;1868;48.918;9.438;2023-04-16T06:35:36;9.10;97.40
3705;DHT22;1868;48.918;9.438;2023-04-16T06:38:07;9.20;97.40
3705;DHT22;1868;48.918;9.438;2023-04-16T06:40:38;9.20;97.40
3705;DHT22;1868;48.918;9.438;2023-04-16T06:43:08;9.20;97.40
3705;DHT22;1868;48.918;9.438;2023-04-16T06:45:44;9.20;97.40
3705;DHT22;1868;48.918;9.438;2023-04-16T06:48:14;9.20;97.40
3705;DHT22;1868;48.918;9.438;2023-04-16T06:50:43;9.20;97.40
3705;DHT22;1868;48.918;9.438;2023-04-16T06:53:12;9.20;97.40
3705;DHT22;1868;48.918;9.438;2023-04-16T06:55:41;9.20;97.40
3705;DHT22;1868;48.918;9.438;2023-04-16T06:58:11;9.20;97.40
3705;DHT22;1868;48.918;9.438;2023-04-16T07:00:40;9.20;97.40
3705;DHT22;1868;48.918;9.438;2023-04-16T07:03:10;9.20;97.40
3705;DHT22;1868;48.918;9.438;2023-04-16T07:05:39;9.30;97.40
3705;DHT22;1868;48.918;9.438;2023-04-16T07:08:09;9.30;97.40
3705;DHT22;1868;48.918;9.438;2023-04-16T07:10:38;9.30;97.40
3705;DHT22;1868;48.918;9.438;2023-04-16T07:13:07;9.30;97.40
3705;DHT22;1868;48.918;9.438;2023-04-16T07:15:41;9.30;97.40
3705;DHT22;1868;48.918;9.438;2023-04-16T07:18:10;9.30;97.40
3705;DHT22;1868;48.918;9.438;2023-04-16T07:20:42;9.30;97.40
3705;DHT22;1868;48.918;9.438;2023-04-16T07:23:11;9.30;97.40
3705;DHT22;1868;48.918;9.438;2023-04-16T07:25:40;9.30;97.40
3705;DHT22;1868;48.918;9.438;2023-04-16T07:28:08;9.30;97.40
3705;DHT22;1868;48.918;9.438;2023-04-16T07:30:39;9.40;97.40
3705;DHT22;1868;48.918;9.438;2023-04-16T07:33:07;9.40;97.40
3705;DHT22;1868;48.918;9.438;2023-04-16T07:35:37;9.40;97.40
3705;DHT22;1868;48.918;9.438;2023-04-16T07:38:07;9.40;97.40
3705;DHT22;1868;48.918;9.438;2023-04-16T07:40:37;9.40;97.40
3705;DHT22;1868;48.918;9.438;2023-04-16T07:43:07;9.40;97.40
3705;DHT22;1868;48.918;9.438;2023-04-16T07:45:39;9.40;97.40
3705;DHT22;1868;48.918;9.438;2023-04-16T07:48:09;9.40;97.40
3705;DHT22;1868;48.918;9.438;2023-04-16T07:50:38;9.50;97.40
3705;DHT22;1868;48.918;9.438;2023-04-16T07:53:10;9.40;97.40
3705;DHT22;1868;48.918;9.438;2023-04-16T07:55:42;9.40;97.40
3705;DHT22;1868;48.918;9.438;2023-04-16T07:58:14;9.40;97.40
3705;DHT22;1868;48.918;9.438;2023-04-16T08:00:45;9.50;97.40
3705;DHT22;1868;48.918;9.438;2023-04-16T08:03:16;9.50;97.40
3705;DHT22;1868;48.918;9.438;2023-04-16T08:05:47;9.50;97.40
3705;DHT22;1868;48.918;9.438;2023-04-16T08:08:18;9.50;97.40
3705;DHT22;1868;48.918;9.438;2023-04-16T08:10:47;9.50;97.40
3705;DHT22;1868;48.918;9.438;2023-04-16T08:13:22;9.50;97.40
3705;DHT22;1868;48.918;9.438;2023-04-16T08:15:54;9.60;97.40
3705;DHT22;1868;48.918;9.438;2023-04-16T08:18:23;9.60;97.40
3705;DHT22;1868;48.918;9.438;2023-04-16T08:20:52;9.70;97.40
3705;DHT22;1868;48.918;9.438;2023-04-16T08:23:25;9.60;97.40
3705;DHT22;1868;48.918;9.438;2023-04-16T08:25:54;9.70;97.40
3705;DHT22;1868;48.918;9.438;2023-04-16T08:28:25;9.70;97.40
3705;DHT22;1868;48.918;9.438;2023-04-16T08:30:59;9.70;97.40
3705;DHT22;1868;48.918;9.438;2023-04-16T08:33:29;9.70;97.40
3705;DHT22;1868;48.918;9.438;2023-04-16T08:35:58;9.70;97.40
3705;DHT22;1868;48.918;9.438;2023-04-16T08:38:28;9.70;97.40
3705;DHT22;1868;48.918;9.438;2023-04-16T08:41:04;9.70;97.40
3705;DHT22;1868;48.918;9.438;2023-04-16T08:43:37;9.80;97.40
3705;DHT22;1868;48.918;9.438;2023-04-16T08:46:08;9.80;97.40
3705;DHT22;1868;48.918;9.438;2023-04-16T08:48:40;9.80;97.40
3705;DHT22;1868;48.918;9.438;2023-04-16T08:51:14;9.80;97.40
3705;DHT22;1868;48.918;9.438;2023-04-16T08:53:48;9.90;97.40
3705;DHT22;1868;48.918;9.438;2023-04-16T08:56:22;9.90;97.40
3705;DHT22;1868;48.918;9.438;2023-04-16T08:58:55;9.90;97.40
3705;DHT22;1868;48.918;9.438;2023-04-16T09:01:29;9.90;97.40
3705;DHT22;1868;48.918;9.438;2023-04-16T09:03:58;9.90;97.40
3705;DHT22;1868;48.918;9.438;2023-04-16T09:06:29;10.00;97.40
3705;DHT22;1868;48.918;9.438;2023-04-16T09:08:58;10.00;97.40
3705;DHT22;1868;48.918;9.438;2023-04-16T09:11:30;10.10;97.40
3705;DHT22;1868;48.918;9.438;2023-04-16T09:14:00;10.10;97.40
3705;DHT22;1868;48.918;9.438;2023-04-16T09:16:35;10.10;97.40
3705;DHT22;1868;48.918;9.438;2023-04-16T09:19:07;10.10;97.40
3705;DHT22;1868;48.918;9.438;2023-04-16T09:21:37;10.10;97.40
3705;DHT22;1868;48.918;9.438;2023-04-16T09:24:07;10.00;97.40
3705;DHT22;1868;48.918;9.438;2023-04-16T09:26:37;10.00;97.40
3705;DHT22;1868;48.918;9.438;2023-04-16T09:29:08;10.00;97.40
3705;DHT22;1868;48.918;9.438;2023-04-16T09:31:39;10.00;97.40
3705;DHT22;1868;48.918;9.438;2023-04-16T09:34:08;10.00;97.40
3705;DHT22;1868;48.918;9.438;2023-04-16T09:36:38;10.00;97.40
3705;DHT22;1868;48.918;9.438;2023-04-16T09:39:17;10.00;97.40
3705;DHT22;1868;48.918;9.438;2023-04-16T09:41:47;10.00;97.40
3705;DHT22;1868;48.918;9.438;2023-04-16T09:44:19;9.90;97.40
3705;DHT22;1868;48.918;9.438;2023-04-16T09:46:53;9.90;97.40
3705;DHT22;1868;48.918;9.438;2023-04-16T09:49:23;9.90;97.40
3705;DHT22;1868;48.918;9.438;2023-04-16T09:51:54;9.90;97.40
3705;DHT22;1868;48.918;9.438;2023-04-16T09:54:25;9.90;97.40
3705;DHT22;1868;48.918;9.438;2023-04-16T09:56:55;10.00;97.40
3705;DHT22;1868;48.918;9.438;2023-04-16T09:59:27;9.90;97.40
3705;DHT22;1868;48.918;9.438;2023-04-16T10:02:02;9.90;97.40
3705;DHT22;1868;48.918;9.438;2023-04-16T10:04:48;9.90;97.40
3705;DHT22;1868;48.918;9.438;2023-04-16T10:07:19;9.90;97.40
3705;DHT22;1868;48.918;9.438;2023-04-16T10:09:48;9.90;97.40
3705;DHT22;1868;48.918;9.438;2023-04-16T10:12:21;9.90;97.40
3705;DHT22;1868;48.918;9.438;2023-04-16T10:14:50;9.90;97.40
3705;DHT22;1868;48.918;9.438;2023-04-16T10:17:21;9.90;97.40
3705;DHT22;1868;48.918;9.438;2023-04-16T10:19:50;9.80;97.40
3705;DHT22;1868;48.918;9.438;2023-04-16T10:22:22;9.80;97.40
3705;DHT22;1868;48.918;9.438;2023-04-16T10:24:52;9.80;97.40
3705;DHT22;1868;48.918;9.438;2023-04-16T10:27:23;9.80;97.40
3705;DHT22;1868;48.918;9.438;2023-04-16T10:29:54;9.80;97.40
3705;DHT22;1868;48.918;9.438;2023-04-16T10:32:26;9.70;97.40
3705;DHT22;1868;48.918;9.438;2023-04-16T10:34:57;9.80;97.40
3705;DHT22;1868;48.918;9.438;2023-04-16T10:37:30;9.80;97.40
3705;DHT22;1868;48.918;9.438;2023-04-16T10:40:01;9.70;97.40
3705;DHT22;1868;48.918;9.438;2023-04-16T10:42:55;9.70;97.40
3705;DHT22;1868;48.918;9.438;2023-04-16T10:45:31;9.70;97.40
3705;DHT22;1868;48.918;9.438;2023-04-16T10:48:06;9.70;97.40
3705;DHT22;1868;48.918;9.438;2023-04-16T10:50:36;9.70;97.40
3705;DHT22;1868;48.918;9.438;2023-04-16T10:53:19;9.70;97.40
3705;DHT22;1868;48.918;9.438;2023-04-16T10:56:10;9.80;97.40
3705;DHT22;1868;48.918;9.438;2023-04-16T10:58:42;9.80;97.40
3705;DHT22;1868;48.918;9.438;2023-04-16T11:01:13;9.80;97.40
3705;DHT22;1868;48.918;9.438;2023-04-16T11:03:47;9.80;97.40
3705;DHT22;1868;48.918;9.438;2023-04-16T11:06:24;9.80;97.40
3705;DHT22;1868;48.918;9.438;2023-04-16T11:08:54;9.80;97.40
3705;DHT22;1868;48.918;9.438;2023-04-16T11:11:23;9.80;97.40
3705;DHT22;1868;48.918;9.438;2023-04-16T11:13:54;9.80;97.40
3705;DHT22;1868;48.918;9.438;2023-04-16T11:16:25;9.80;97.40
3705;DHT22;1868;48.918;9.438;2023-04-16T11:18:56;9.90;97.40
3705;DHT22;1868;48.918;9.438;2023-04-16T11:21:25;9.80;97.40
3705;DHT22;1868;48.918;9.438;2023-04-16T11:23:56;9.80;97.40
3705;DHT22;1868;48.918;9.438;2023-04-16T11:26:27;9.80;97.40
3705;DHT22;1868;48.918;9.438;2023-04-16T11:28:57;9.80;97.40
3705;DHT22;1868;48.918;9.438;2023-04-16T11:31:26;9.90;97.40
3705;DHT22;1868;48.918;9.438;2023-04-16T11:33:58;9.80;97.40
3705;DHT22;1868;48.918;9.438;2023-04-16T11:36:42;9.90;97.40
3705;DHT22;1868;48.918;9.438;2023-04-16T11:39:11;9.90;97.40
3705;DHT22;1868;48.918;9.438;2023-04-16T11:41:44;9.90;97.40
3705;DHT22;1868;48.918;9.438;2023-04-16T11:44:18;9.90;97.40
3705;DHT22;1868;48.918;9.438;2023-04-16T11:46:47;10.00;97.40
3705;DHT22;1868;48.918;9.438;2023-04-16T11:49:27;10.00;97.40
3705;DHT22;1868;48.918;9.438;2023-04-16T11:51:56;10.10;97.40
3705;DHT22;1868;48.918;9.438;2023-04-16T11:54:25;10.10;97.40
3705;DHT22;1868;48.918;9.438;2023-04-16T11:57:02;10.10;97.40
3705;DHT22;1868;48.918;9.438;2023-04-16T11:59:32;10.10;97.40
3705;DHT22;1868;48.918;9.438;2023-04-16T12:02:36;10.10;97.40
3705;DHT22;1868;48.918;9.438;2023-04-16T12:05:26;10.20;97.40
3705;DHT22;1868;48.918;9.438;2023-04-16T12:07:57;10.20;97.40
3705;DHT22;1868;48.918;9.438;2023-04-16T12:10:32;10.20;97.40
3705;DHT22;1868;48.918;9.438;2023-04-16T12:13:09;10.30;97.40
3705;DHT22;1868;48.918;9.438;2023-04-16T12:15:43;10.20;97.40
3705;DHT22;1868;48.918;9.438;2023-04-16T12:18:13;10.30;97.40
3705;DHT22;1868;48.918;9.438;2023-04-16T12:20:45;10.30;97.40
3705;DHT22;1868;48.918;9.438;2023-04-16T12:23:25;10.30;97.40
3705;DHT22;1868;48.918;9.438;2023-04-16T12:25:57;10.20;97.40
3705;DHT22;1868;48.918;9.438;2023-04-16T12:28:30;10.20;97.40
3705;DHT22;1868;48.918;9.438;2023-04-16T12:31:02;10.30;97.40
3705;DHT22;1868;48.918;9.438;2023-04-16T12:33:31;10.30;97.40
3705;DHT22;1868;48.918;9.438;2023-04-16T12:36:23;10.30;97.40
3705;DHT22;1868;48.918;9.438;2023-04-16T12:38:52;10.30;97.40
3705;DHT22;1868;48.918;9.438;2023-04-16T12:41:20;10.30;97.40
3705;DHT22;1868;48.918;9.438;2023-04-16T12:43:49;10.30;97.40
3705;DHT22;1868;48.918;9.438;2023-04-16T12:46:19;10.30;97.40
3705;DHT22;1868;48.918;9.438;2023-04-16T12:48:49;10.30;97.40
3705;DHT22;1868;48.918;9.438;2023-04-16T12:51:22;10.30;97.40
3705;DHT22;1868;48.918;9.438;2023-04-16T12:53:51;10.40;97.40
3705;DHT22;1868;48.918;9.438;2023-04-16T12:56:22;10.40;97.40
3705;DHT22;1868;48.918;9.438;2023-04-16T12:58:52;10.40;97.40
3705;DHT22;1868;48.918;9.438;2023-04-16T13:01:21;10.30;97.40
3705;DHT22;1868;48.918;9.438;2023-04-16T13:03:51;10.30;97.40
3705;DHT22;1868;48.918;9.438;2023-04-16T13:06:25;10.40;97.40
3705;DHT22;1868;48.918;9.438;2023-04-16T13:08:53;10.40;97.40
3705;DHT22;1868;48.918;9.438;2023-04-16T13:11:22;10.40;97.40
3705;DHT22;1868;48.918;9.438;2023-04-16T13:13:52;10.40;97.40
3705;DHT22;1868;48.918;9.438;2023-04-16T13:16:21;10.40;97.40
3705;DHT22;1868;48.918;9.438;2023-04-16T13:18:50;10.40;97.40
3705;DHT22;1868;48.918;9.438;2023-04-16T13:21:19;10.50;97.40
3705;DHT22;1868;48.918;9.438;2023-04-16T13:23:55;10.50;97.40
3705;DHT22;1868;48.918;9.438;2023-04-16T13:26:26;10.50;97.40
3705;DHT22;1868;48.918;9.438;2023-04-16T13:28:55;10.50;97.40
3705;DHT22;1868;48.918;9.438;2023-04-16T13:31:26;10.50;97.40
3705;DHT22;1868;48.918;9.438;2023-04-16T13:34:00;10.60;97.40
3705;DHT22;1868;48.918;9.438;2023-04-16T13:36:29;10.50;97.40
3705;DHT22;1868;48.918;9.438;2023-04-16T13:39:02;10.60;97.40
3705;DHT22;1868;48.918;9.438;2023-04-16T13:41:41;10.50;97.40
3705;DHT22;1868;48.918;9.438;2023-04-16T13:44:14;10.50;97.40
3705;DHT22;1868;48.918;9.438;2023-04-16T13:46:46;10.50;97.40
3705;DHT22;1868;48.918;9.438;2023-04-16T13:49:16;10.50;97.40
3705;DHT22;1868;48.918;9.438;2023-04-16T13:51:45;10.50;97.40
3705;DHT22;1868;48.918;9.438;2023-04-16T13:54:15;10.50;97.40
3705;DHT22;1868;48.918;9.438;2023-04-16T13:56:44;10.50;97.40
3705;DHT22;1868;48.918;9.438;2023-04-16T13:59:16;10.50;97.40
3705;DHT22;1868;48.918;9.438;2023-04-16T14:01:46;10.50;97.40
3705;DHT22;1868;48.918;9.438;2023-04-16T14:04:16;10.40;97.40
3705;DHT22;1868;48.918;9.438;2023-04-16T14:06:48;10.40;97.40
3705;DHT22;1868;48.918;9.438;2023-04-16T14:09:19;10.40;97.40
3705;DHT22;1868;48.918;9.438;2023-04-16T14:11:51;10.40;97.40
3705;DHT22;1868;48.918;9.438;2023-04-16T14:14:20;10.40;97.40
3705;DHT22;1868;48.918;9.438;2023-04-16T14:16:56;10.40;97.40
3705;DHT22;1868;48.918;9.438;2023-04-16T14:19:27;10.50;97.40
3705;DHT22;1868;48.918;9.438;2023-04-16T14:21:57;10.40;97.40
3705;DHT22;1868;48.918;9.438;2023-04-16T14:24:28;10.50;97.40
3705;DHT22;1868;48.918;9.438;2023-04-16T14:26:57;10.50;97.40
3705;DHT22;1868;48.918;9.438;2023-04-16T14:29:25;10.50;97.40
3705;DHT22;1868;48.918;9.438;2023-04-16T14:31:55;10.50;97.40
3705;DHT22;1868;48.918;9.438;2023-04-16T14:34:25;10.40;97.40
3705;DHT22;1868;48.918;9.438;2023-04-16T14:36:54;10.40;97.40
3705;DHT22;1868;48.918;9.438;2023-04-16T14:39:26;10.40;97.40
3705;DHT22;1868;48.918;9.438;2023-04-16T14:41:56;10.50;97.40
3705;DHT22;1868;48.918;9.438;2023-04-16T14:44:27;10.50;97.40
3705;DHT22;1868;48.918;9.438;2023-04-16T14:46:58;10.50;97.40
3705;DHT22;1868;48.918;9.438;2023-04-16T14:49:28;10.40;97.40
3705;DHT22;1868;48.918;9.438;2023-04-16T14:52:01;10.50;97.40
3705;DHT22;1868;48.918;9.438;2023-04-16T14:54:33;10.50;97.40
3705;DHT22;1868;48.918;9.438;2023-04-16T14:57:02;10.50;97.40
3705;DHT22;1868;48.918;9.438;2023-04-16T14:59:40;10.50;97.40
3705;DHT22;1868;48.918;9.438;2023-04-16T15:02:10;10.50;97.40
3705;DHT22;1868;48.918;9.438;2023-04-16T15:04:40;10.50;97.40
3705;DHT22;1868;48.918;9.438;2023-04-16T15:07:12;10.40;97.40
3705;DHT22;1868;48.918;9.438;2023-04-16T15:09:43;10.40;97.40
3705;DHT22;1868;48.918;9.438;2023-04-16T15:12:24;10.50;97.40
3705;DHT22;1868;48.918;9.438;2023-04-16T15:14:57;10.40;97.40
3705;DHT22;1868;48.918;9.438;2023-04-16T15:17:29;10.40;97.40
3705;DHT22;1868;48.918;9.438;2023-04-16T15:20:01;10.40;97.40
3705;DHT22;1868;48.918;9.438;2023-04-16T15:22:33;10.40;97.40
3705;DHT22;1868;48.918;9.438;2023-04-16T15:25:04;10.50;97.40
3705;DHT22;1868;48.918;9.438;2023-04-16T15:27:34;10.50;97.40
3705;DHT22;1868;48.918;9.438;2023-04-16T15:30:07;10.50;97.40
3705;DHT22;1868;48.918;9.438;2023-04-16T15:32:37;10.50;97.40
3705;DHT22;1868;48.918;9.438;2023-04-16T15:35:07;10.50;97.40
3705;DHT22;1868;48.918;9.438;2023-04-16T15:37:38;10.50;97.40
3705;DHT22;1868;48.918;9.438;2023-04-16T15:40:13;10.50;97.40
3705;DHT22;1868;48.918;9.438;2023-04-16T15:42:46;10.50;97.40
3705;DHT22;1868;48.918;9.438;2023-04-16T15:45:15;10.50;97.40
3705;DHT22;1868;48.918;9.438;2023-04-16T15:47:44;10.50;97.40
3705;DHT22;1868;48.918;9.438;2023-04-16T15:50:19;10.50;97.40
3705;DHT22;1868;48.918;9.438;2023-04-16T15:52:50;10.50;97.40
3705;DHT22;1868;48.918;9.438;2023-04-16T15:55:22;10.50;97.40
3705;DHT22;1868;48.918;9.438;2023-04-16T15:57:53;10.50;97.40
3705;DHT22;1868;48.918;9.438;2023-04-16T16:00:31;10.50;97.40
3705;DHT22;1868;48.918;9.438;2023-04-16T16:03:01;10.50;97.40
3705;DHT22;1868;48.918;9.438;2023-04-16T16:05:35;10.40;97.40
3705;DHT22;1868;48.918;9.438;2023-04-16T16:08:09;10.50;97.40
3705;DHT22;1868;48.918;9.438;2023-04-16T16:10:41;10.50;97.40
3705;DHT22;1868;48.918;9.438;2023-04-16T16:13:17;10.50;97.40
3705;DHT22;1868;48.918;9.438;2023-04-16T16:15:46;10.50;97.40
3705;DHT22;1868;48.918;9.438;2023-04-16T16:18:19;10.40;97.40
3705;DHT22;1868;48.918;9.438;2023-04-16T16:20:55;10.40;97.40
3705;DHT22;1868;48.918;9.438;2023-04-16T16:23:26;10.40;97.40
3705;DHT22;1868;48.918;9.438;2023-04-16T16:25:57;10.40;97.40
3705;DHT22;1868;48.918;9.438;2023-04-16T16:28:26;10.40;97.40
3705;DHT22;1868;48.918;9.438;2023-04-16T16:30:56;10.40;97.40
3705;DHT22;1868;48.918;9.438;2023-04-16T16:33:28;10.30;97.40
3705;DHT22;1868;48.918;9.438;2023-04-16T16:35:57;10.30;97.40
3705;DHT22;1868;48.918;9.438;2023-04-16T16:38:28;10.30;97.40